Time;durP1;ratioP1;P1;durP2;ratioP2;P2;SDS_P1;SDS_P2;PMS_P1;PMS_P2;Temp;Humidity;BMP_temperature;BMP_pressure;BME280_temperature;BME280_humidity;BME280_pressure;Samples;Min_cycle;Max_cycle;Signal;HPM_P1;HPM_P2
2023/07/24 00:02:00;;;;;;;8.43;5.00;;;21.20;59.40;;;20.61;53.70;97198.53;5132153;27;20455;-86
2023/07/24 00:04:28;;;;;;;6.83;4.67;;;21.20;60.10;;;20.83;54.77;97317.84;5124377;27;20455;-86
2023/07/24 00:06:55;;;;;;;5.10;4.53;;;20.90;60.40;;;20.92;55.28;97379.19;5140669;27;20562;-85
2023/07/24 00:09:25;;;;;;;6.20;4.80;;;20.70;61.30;;;20.85;57.81;97422.69;5134555;27;20463;-85
2023/07/24 00:11:53;;;;;;;6.17;4.27;;;20.60;62.90;;;20.73;58.38;97447.78;5128078;27;20437;-85
2023/07/24 00:14:21;;;;;;;6.67;5.13;;;20.60;64.20;;;20.35;58.88;97401.91;5111694;27;20455;-85
2023/07/24 00:16:51;;;;;;;6.83;4.40;;;20.50;65.10;;;20.14;63.33;97367.66;5131843;27;20465;-85
2023/07/24 00:19:20;;;;;;;7.53;5.47;;;20.30;68.90;;;20.12;60.49;97394.56;5128557;27;20447;-84
2023/07/24 00:21:47;;;;;;;7.37;4.80;;;20.10;68.50;;;19.90;61.53;97390.38;5127331;27;20437;-85
2023/07/24 00:24:16;;;;;;;8.50;5.00;;;19.90;70.00;;;19.81;62.90;97390.22;5118949;27;21085;-84
2023/07/24 00:26:44;;;;;;;5.50;4.70;;;19.70;72.20;;;19.50;64.49;97374.94;5125620;27;20525;-81
2023/07/24 00:29:11;;;;;;;6.50;5.00;;;19.50;74.80;;;19.35;64.61;97416.16;5141295;27;20470;-83
2023/07/24 00:31:38;;;;;;;10.00;5.10;;;19.40;76.80;;;19.22;67.64;97421.19;5110039;27;20509;-83
2023/07/24 00:34:07;;;;;;;5.70;4.30;;;19.30;79.50;;;19.41;66.86;97436.91;5140764;27;20454;-84
2023/07/24 00:36:35;;;;;;;7.80;4.50;;;19.30;80.40;;;19.24;66.13;97464.69;5110635;27;20442;-84
2023/07/24 00:39:02;;;;;;;10.03;4.73;;;19.20;80.30;;;19.15;67.73;97483.66;5114096;27;20449;-84
2023/07/24 00:41:30;;;;;;;7.27;4.90;;;19.10;81.50;;;18.63;69.33;97428.41;5107695;27;20577;-86
2023/07/24 00:46:39;;;;;;;7.03;4.87;;;18.70;83.60;;;18.79;69.41;97437.34;5134748;27;20465;-83
2023/07/24 00:49:09;;;;;;;5.37;4.40;;;18.80;84.40;;;18.19;72.78;97365.19;5150502;27;20477;-85
2023/07/24 00:51:38;;;;;;;6.90;4.30;;;18.70;87.50;;;18.27;72.19;97374.72;5146777;27;20454;-85
2023/07/24 00:54:08;;;;;;;7.00;4.10;;;18.40;87.10;;;18.23;75.41;97365.47;5118595;27;20445;-83
2023/07/24 00:56:36;;;;;;;7.53;4.70;;;18.30;90.70;;;17.99;74.13;97320.44;5133675;27;20457;-84
2023/07/24 00:59:04;;;;;;;6.30;4.20;;;18.10;90.10;;;18.29;71.99;97337.00;5137860;27;20452;-84
2023/07/24 01:01:31;;;;;;;6.63;5.07;;;18.10;89.60;;;18.58;71.24;97317.13;5122129;27;20450;-85
2023/07/24 01:03:59;;;;;;;7.63;4.80;;;18.30;89.20;;;18.65;69.69;97284.78;5127679;27;20849;-83
2023/07/24 01:06:37;;;;;;;7.73;4.87;;;18.60;87.20;;;19.40;67.22;97339.41;5127687;27;20472;-82
2023/07/24 01:09:05;;;;;;;6.53;4.80;;;19.10;85.10;;;19.14;69.35;97323.25;5129319;27;20483;-83
2023/07/24 01:11:39;;;;;;;8.17;5.00;;;19.10;85.60;;;19.16;68.61;97233.41;5112573;27;20992;-82
2023/07/24 01:14:15;;;;;;;6.93;5.27;;;19.40;85.10;;;19.88;66.57;97270.09;5128758;27;20452;-83
2023/07/24 01:16:44;;;;;;;6.50;4.57;;;19.60;84.10;;;19.85;66.85;97242.47;5136682;27;20438;-83
2023/07/24 01:19:21;;;;;;;6.03;4.23;;;19.70;84.30;;;19.63;68.13;97213.69;5111262;28;20466;-84
2023/07/24 01:22:03;;;;;;;8.27;5.57;;;19.60;84.60;;;19.38;70.12;97240.31;5115924;27;20464;-82
2023/07/24 01:24:40;;;;;;;7.23;5.70;;;19.30;86.80;;;19.56;67.88;97246.13;5117787;27;20489;-85
2023/07/24 01:27:10;;;;;;;8.73;4.50;;;19.40;85.30;;;19.81;66.95;97270.47;5130564;27;20451;-84
2023/07/24 01:29:37;;;;;;;8.57;4.63;;;19.70;84.30;;;20.17;65.76;97298.50;5113942;27;20518;-85
2023/07/24 01:32:06;;;;;;;8.33;5.00;;;19.90;83.60;;;19.81;65.98;97264.97;5128103;27;20458;-85
2023/07/24 01:34:34;;;;;;;5.97;4.73;;;19.80;83.60;;;20.13;66.27;97308.44;5152927;27;20501;-85
2023/07/24 01:37:02;;;;;;;7.03;5.80;;;19.90;83.70;;;19.48;68.64;97248.38;5142723;27;20520;-83
2023/07/24 01:39:29;;;;;;;9.30;5.60;;;19.60;84.80;;;19.95;67.17;97245.09;5104102;27;20969;-83
2023/07/24 01:41:57;;;;;;;6.13;5.13;;;19.70;84.20;;;19.85;66.05;97160.22;5141122;27;20441;-84
2023/07/24 01:44:26;;;;;;;5.97;4.77;;;19.90;83.50;;;19.41;69.56;97141.13;5136326;27;20939;-83
2023/07/24 01:46:54;;;;;;;9.60;5.47;;;19.50;84.70;;;18.57;74.82;97124.00;5132224;27;20462;-82
2023/07/24 01:49:21;;;;;;;8.50;5.00;;;19.10;88.80;;;18.34;77.52;97158.41;5111177;28;20477;-83
2023/07/24 01:51:48;;;;;;;7.53;5.60;;;18.50;91.20;;;18.09;78.25;97218.47;5119544;27;20438;-84
2023/07/24 01:54:16;;;;;;;7.10;5.40;;;18.10;92.10;;;17.42;81.75;97191.53;5111579;27;20774;-82
2023/07/24 01:56:43;;;;;;;6.67;5.87;;;17.70;94.30;;;17.39;80.72;97165.59;5124989;28;20446;-83
2023/07/24 01:59:10;;;;;;;7.97;6.30;;;17.60;94.60;;;17.58;82.08;97202.38;5142058;27;20524;-83
2023/07/24 02:01:40;;;;;;;9.70;5.43;;;17.60;95.60;;;17.55;82.55;97188.19;5093782;27;20471;-82
2023/07/24 02:04:07;;;;;;;7.77;5.60;;;17.60;95.60;;;17.50;80.76;97179.19;5137812;27;20477;-83
2023/07/24 02:06:34;;;;;;;10.07;6.03;;;17.50;93.90;;;17.16;84.72;97144.44;5141837;27;20481;-83
2023/07/24 02:09:01;;;;;;;6.70;5.07;;;17.50;97.70;;;17.49;84.38;97194.75;5123060;27;20461;-84
2023/07/24 02:11:29;;;;;;;7.00;5.23;;;17.40;97.50;;;17.52;83.62;97191.50;5139161;27;20953;-83
2023/07/24 02:13:56;;;;;;;8.20;5.67;;;17.40;97.30;;;17.63;85.51;97192.25;5116203;27;20448;-81
2023/07/24 02:16:23;;;;;;;9.10;5.70;;;17.40;99.40;;;17.24;85.32;97141.09;5131839;27;20459;-84
2023/07/24 02:18:52;;;;;;;7.53;5.80;;;17.40;99.60;;;17.73;85.63;97205.03;5131932;27;20447;-83
2023/07/24 02:21:20;;;;;;;8.80;6.20;;;17.50;99.70;;;17.58;86.30;97175.06;5119857;27;20438;-85
2023/07/24 02:23:48;;;;;;;9.53;6.10;;;17.60;99.90;;;17.65;87.44;97186.47;5136289;27;20444;-83
2023/07/24 02:26:15;;;;;;;7.60;5.80;;;17.60;99.90;;;17.63;85.99;97167.66;5115251;27;20538;-84
2023/07/24 02:28:42;;;;;;;9.30;6.00;;;17.60;99.90;;;18.09;81.18;97193.88;5102640;27;20797;-83
2023/07/24 02:31:09;;;;;;;6.83;4.90;;;17.70;96.00;;;18.06;78.31;97120.66;5128888;27;20456;-83
2023/07/24 02:33:37;;;;;;;9.10;6.70;;;18.10;93.90;;;18.92;75.20;97171.25;5138761;27;20453;-84
2023/07/24 02:36:05;;;;;;;7.83;5.80;;;18.50;92.00;;;18.80;77.14;97185.34;5135451;27;20461;-82
2023/07/24 02:38:33;;;;;;;8.70;6.80;;;18.60;92.20;;;18.66;77.56;97193.41;5117001;27;20457;-82
2023/07/24 02:41:00;;;;;;;8.13;6.20;;;18.60;92.50;;;19.15;73.90;97198.94;5144542;27;20434;-82
2023/07/24 02:43:28;;;;;;;8.33;6.00;;;18.80;91.10;;;19.19;71.24;97128.81;5107349;27;20449;-79
2023/07/24 02:45:55;;;;;;;9.73;6.47;;;19.20;89.60;;;19.79;70.03;97174.03;5138772;27;20443;-81
2023/07/24 02:48:23;;;;;;;8.37;5.87;;;19.50;88.60;;;19.75;70.44;97192.16;5157617;27;20519;-81
2023/07/24 02:50:50;;;;;;;8.30;6.17;;;19.50;88.70;;;19.70;71.88;97191.41;5123705;27;20961;-82
2023/07/24 02:53:19;;;;;;;7.77;5.90;;;19.50;88.90;;;19.46;71.93;97173.91;5116515;27;20452;-83
2023/07/24 02:55:46;;;;;;;6.03;5.43;;;19.30;89.10;;;20.01;70.01;97194.56;5113216;27;20452;-84
2023/07/24 02:58:15;;;;;;;8.60;6.50;;;19.60;88.50;;;19.44;73.91;97187.09;5113248;27;20454;-83
2023/07/24 03:00:42;;;;;;;8.47;6.23;;;19.40;90.20;;;19.31;75.35;97198.75;5106344;27;20502;-82
2023/07/24 03:03:10;;;;;;;7.47;5.23;;;19.20;91.20;;;19.71;72.41;97195.78;5135698;27;20462;-84
2023/07/24 03:05:39;;;;;;;9.63;6.73;;;19.30;90.00;;;19.74;72.92;97192.47;5150176;27;20459;-82
2023/07/24 03:08:07;;;;;;;9.27;6.30;;;19.40;90.20;;;18.89;75.83;97129.97;5116898;27;20456;-83
2023/07/24 03:10:36;;;;;;;7.90;6.60;;;19.10;91.50;;;19.05;78.25;97193.59;5118258;27;20785;-82
2023/07/24 03:13:03;;;;;;;7.93;6.00;;;18.90;92.90;;;19.05;76.92;97188.13;5120345;27;20442;-81
2023/07/24 03:15:31;;;;;;;7.53;6.40;;;18.80;92.80;;;19.28;75.72;97191.97;5152792;27;20448;-85
2023/07/24 03:17:58;;;;;;;8.93;6.87;;;18.90;92.00;;;19.08;76.88;97188.34;5114829;27;20465;-83
2023/07/24 03:20:25;;;;;;;9.63;7.07;;;18.90;92.80;;;19.11;76.63;97178.72;5142016;27;20985;-83
2023/07/24 03:22:52;;;;;;;8.30;6.40;;;18.80;92.50;;;19.07;76.64;97181.22;5131183;27;20560;-85
2023/07/24 03:25:20;;;;;;;9.60;6.30;;;18.90;92.20;;;19.06;75.31;97140.47;5113659;27;21075;-82
2023/07/24 03:27:48;;;;;;;7.40;5.43;;;19.00;91.60;;;19.73;72.96;97161.50;5114931;27;20454;-82
2023/07/24 03:30:16;;;;;;;11.60;6.27;;;19.30;90.80;;;19.76;72.05;97147.19;5134015;27;20968;-84
2023/07/24 03:32:43;;;;;;;11.13;6.53;;;19.50;90.20;;;19.57;73.45;97154.59;5134986;27;20973;-82
2023/07/24 03:35:11;;;;;;;7.17;5.50;;;19.40;90.40;;;18.61;76.22;97077.75;5140923;27;20462;-84
2023/07/24 03:37:38;;;;;;;8.40;5.90;;;19.10;91.50;;;19.06;76.84;97151.44;5142851;27;20463;-83
2023/07/24 03:40:07;;;;;;;9.40;6.47;;;18.80;92.20;;;19.21;78.19;97167.66;5129724;27;20454;-83
2023/07/24 03:42:34;;;;;;;8.53;6.73;;;18.90;93.10;;;18.93;80.28;97174.78;5140704;27;20452;-83
2023/07/24 03:45:07;;;;;;;9.67;7.10;;;18.70;94.90;;;18.29;82.67;97150.25;5138058;27;21197;-82
2023/07/24 03:47:35;;;;;;;10.57;6.50;;;18.40;95.60;;;18.25;85.67;97155.47;5109994;27;20475;-84
2023/07/24 03:50:02;;;;;;;7.83;6.00;;;18.20;98.30;;;18.06;85.56;97144.47;5146415;27;20475;-84
2023/07/24 03:52:29;;;;;;;7.83;6.00;;;18.10;98.60;;;18.05;85.56;97140.91;5112748;27;20480;-84
2023/07/24 03:54:56;;;;;;;10.27;7.40;;;18.10;98.90;;;17.93;85.29;97104.88;5137448;27;20451;-83
2023/07/24 03:57:24;;;;;;;9.27;6.13;;;18.10;98.60;;;17.49;86.24;97066.41;5137750;27;21322;-83
2023/07/24 03:59:51;;;;;;;8.70;6.00;;;18.00;98.60;;;18.06;83.81;97087.06;5115704;27;21229;-81
2023/07/24 04:02:20;;;;;;;9.57;6.97;;;18.00;97.30;;;18.42;82.38;97127.72;5132214;27;20454;-83
2023/07/24 04:04:58;;;;;;;8.40;7.40;;;18.20;96.20;;;17.80;85.30;97090.78;5115597;27;20449;-84
2023/07/24 04:07:26;;;;;;;7.30;6.13;;;18.00;97.90;;;17.79;87.59;97119.19;5134568;27;20431;-83
2023/07/24 04:09:54;;;;;;;9.40;7.23;;;17.80;99.90;;;17.62;89.28;97118.78;5118302;27;20470;-84
2023/07/24 04:12:21;;;;;;;9.90;8.27;;;17.60;99.90;;;17.15;88.53;97048.09;5131347;27;20439;-84
2023/07/24 04:14:51;;;;;;;8.50;7.20;;;17.50;99.90;;;17.52;88.72;97101.38;5136181;27;20491;-84
2023/07/24 04:17:20;;;;;;;10.80;7.83;;;17.50;99.90;;;17.58;90.29;97113.06;5117625;27;20964;-84
2023/07/24 04:19:47;;;;;;;8.90;6.73;;;17.50;99.90;;;17.51;90.72;97116.09;5138017;27;20457;-82
2023/07/24 04:22:14;;;;;;;8.57;6.10;;;17.40;99.90;;;17.41;90.49;97122.44;5141426;27;20446;-84
2023/07/24 04:24:41;;;;;;;8.70;6.70;;;17.30;99.90;;;17.46;90.07;97107.94;5110187;27;20445;-83
2023/07/24 04:27:09;;;;;;;8.90;6.73;;;17.30;99.90;;;17.48;88.80;97099.50;5114791;27;20483;-82
2023/07/24 04:29:37;;;;;;;9.43;7.80;;;17.40;99.90;;;17.42;88.72;97099.50;5149603;27;20489;-84
2023/07/24 04:32:05;;;;;;;9.10;6.93;;;17.40;99.90;;;17.50;89.26;97089.91;5128409;27;20466;-84
2023/07/24 04:34:34;;;;;;;10.90;7.67;;;17.40;99.90;;;17.17;88.46;97075.09;5151433;27;20456;-85
2023/07/24 04:37:01;;;;;;;9.03;7.07;;;17.40;99.90;;;17.43;88.06;97081.22;5138513;27;20460;-84
2023/07/24 04:39:28;;;;;;;11.27;7.07;;;17.40;99.90;;;17.26;85.99;97011.44;5139769;27;20489;-84
2023/07/24 04:41:55;;;;;;;11.67;7.37;;;17.70;97.70;;;18.11;83.27;97056.94;5112668;27;20446;-84
2023/07/24 04:44:23;;;;;;;9.63;6.00;;;18.20;95.60;;;19.68;75.75;97091.13;5138817;27;20445;-83
2023/07/24 04:46:55;;;;;;;13.10;6.63;;;19.10;92.20;;;19.93;71.74;97019.78;5120372;27;20452;-82
2023/07/24 04:49:23;;;;;;;7.80;5.73;;;20.00;90.10;;;21.21;66.97;97069.72;5105855;27;20442;-83
2023/07/24 04:51:52;;;;;;;7.70;6.07;;;21.00;87.00;;;21.26;67.21;97068.81;5117559;27;20448;-85
2023/07/24 04:54:19;;;;;;;9.10;6.77;;;21.20;86.40;;;21.53;66.27;97081.66;5147552;27;20521;-84
2023/07/24 04:56:47;;;;;;;6.50;5.70;;;21.40;85.60;;;21.44;66.61;97086.28;5148716;27;20442;-85
2023/07/24 04:59:14;;;;;;;8.50;5.40;;;21.50;85.50;;;21.83;63.89;97043.59;5136015;27;21083;-84
2023/07/24 05:01:41;;;;;;;9.17;6.50;;;21.70;84.60;;;22.80;60.62;97079.88;5132250;27;20453;-83
2023/07/24 05:04:10;;;;;;;7.57;5.73;;;22.20;83.30;;;22.79;60.57;97086.50;5111348;27;20510;-83
2023/07/24 05:06:38;;;;;;;8.80;6.07;;;22.70;82.00;;;21.38;65.40;97091.06;5118170;27;20457;-83
2023/07/24 05:09:08;;;;;;;7.97;5.90;;;21.80;83.20;;;21.25;66.65;97111.13;5137387;27;20456;-81
2023/07/24 05:11:35;;;;;;;8.27;6.00;;;21.20;84.40;;;20.82;69.72;97110.34;5110656;27;20475;-81
2023/07/24 05:14:03;;;;;;;8.23;6.27;;;20.90;86.00;;;20.84;70.19;97145.72;5134014;27;20511;-82
2023/07/24 05:16:32;;;;;;;9.10;6.97;;;20.70;86.90;;;20.81;67.22;97152.63;5151853;27;20813;-84
2023/07/24 05:19:01;;;;;;;9.70;6.70;;;20.70;85.50;;;20.44;68.08;97143.41;5156635;27;20421;-88
2023/07/24 05:21:28;;;;;;;7.57;6.17;;;20.50;85.40;;;18.96;72.61;97037.41;5142497;27;20457;-84
2023/07/24 05:23:55;;;;;;;8.67;6.00;;;19.90;86.50;;;18.98;75.99;97120.81;5131258;28;20449;-85
2023/07/24 05:26:24;;;;;;;9.57;6.80;;;19.30;89.10;;;18.77;77.11;97114.75;5114842;27;20509;-83
2023/07/24 05:28:52;;;;;;;10.13;7.10;;;19.00;90.40;;;18.58;79.39;97109.25;5105658;28;20467;-86
2023/07/24 05:31:20;;;;;;;7.57;6.77;;;18.70;92.00;;;18.94;77.33;97100.63;5143141;27;20481;-83
2023/07/24 05:33:48;;;;;;;8.23;6.33;;;18.80;91.90;;;21.17;68.56;97121.72;5113378;27;20451;-82
2023/07/24 05:36:15;;;;;;;9.80;7.53;;;20.40;89.20;;;21.96;65.50;97096.91;5131774;27;21247;-81
2023/07/24 05:38:43;;;;;;;7.97;6.40;;;21.80;85.90;;;22.53;64.05;97098.25;5137479;27;20449;-85
2023/07/24 05:41:10;;;;;;;7.77;5.90;;;22.40;84.80;;;23.04;61.97;97090.47;5113105;27;20998;-83
2023/07/24 05:43:38;;;;;;;8.03;5.77;;;23.00;83.40;;;23.21;61.40;97092.47;5151620;27;20457;-82
2023/07/24 05:46:06;;;;;;;9.80;7.10;;;23.20;82.30;;;23.29;60.71;97092.84;5108626;27;20449;-78
2023/07/24 05:48:33;;;;;;;9.37;6.93;;;23.50;81.60;;;23.83;58.62;97097.22;5127794;27;20465;-80
2023/07/24 05:51:01;;;;;;;6.90;6.00;;;24.20;79.80;;;23.38;60.21;97099.16;5124912;27;20503;-81
2023/07/24 05:53:28;;;;;;;8.53;6.27;;;23.90;79.80;;;23.88;58.55;97094.31;5119101;27;20483;-79
2023/07/24 05:56:00;;;;;;;9.23;6.23;;;24.20;79.40;;;23.63;59.06;97083.78;5133268;27;20447;-82
2023/07/24 05:58:29;;;;;;;7.43;6.13;;;24.10;79.30;;;23.69;58.48;97084.41;5120017;27;20470;-84
2023/07/24 06:00:58;;;;;;;8.33;5.83;;;23.90;78.60;;;23.28;59.84;97099.50;5132246;27;20464;-81
2023/07/24 06:03:26;;;;;;;8.93;6.53;;;24.00;78.90;;;21.89;62.14;97049.78;5148238;27;20449;-80
2023/07/24 06:05:54;;;;;;;8.53;6.83;;;23.10;78.80;;;21.77;64.14;97099.81;5133787;27;20475;-80
2023/07/24 06:08:22;;;;;;;9.70;6.40;;;22.30;80.50;;;21.58;65.92;97111.78;5148169;27;20508;-83
2023/07/24 06:10:50;;;;;;;8.13;6.70;;;21.90;82.10;;;21.37;66.60;97116.91;5138755;27;20458;-79
2023/07/24 06:13:18;;;;;;;8.07;6.80;;;21.50;83.00;;;21.07;67.35;97100.78;5148052;27;20454;-78
2023/07/24 06:15:45;;;;;;;8.43;6.40;;;21.10;83.90;;;20.95;67.89;97115.03;5155587;27;20465;-84
2023/07/24 06:18:14;;;;;;;7.20;5.63;;;21.10;84.20;;;20.45;67.05;97040.81;5155852;27;20432;-78
2023/07/24 06:20:41;;;;;;;7.97;6.60;;;21.00;83.80;;;21.04;65.85;97117.88;5147838;27;20432;-77
2023/07/24 06:23:09;;;;;;;8.83;6.03;;;21.00;83.60;;;20.87;65.18;97062.78;5146154;27;20495;-80
2023/07/24 06:25:36;;;;;;;10.23;6.60;;;21.00;83.20;;;21.08;64.56;97101.59;5143749;27;20462;-80
2023/07/24 06:28:04;;;;;;;8.33;6.20;;;21.00;82.70;;;21.39;64.15;97111.91;5117117;27;21016;-86
2023/07/24 06:30:31;;;;;;;8.13;6.40;;;21.20;82.90;;;20.77;66.37;97097.50;5121558;27;20469;-83
2023/07/24 06:35:50;;;;;;;7.90;6.23;;;21.00;84.20;;;20.75;66.34;97101.69;5124840;27;20444;-84
2023/07/24 06:38:17;;;;;;;8.37;6.20;;;20.90;83.20;;;20.96;65.99;97099.38;5123062;27;20468;-79
2023/07/24 06:40:44;;;;;;;8.10;6.03;;;20.90;83.50;;;20.64;68.61;97099.13;5111178;27;21525;-84
2023/07/24 06:43:12;;;;;;;8.73;6.80;;;20.70;84.50;;;21.12;66.86;97093.56;5113431;27;20457;-83
2023/07/24 06:45:39;;;;;;;7.97;6.50;;;20.90;84.60;;;21.33;65.71;97093.94;5117186;27;20511;-82
2023/07/24 06:48:07;;;;;;;8.90;6.53;;;21.10;84.10;;;21.00;67.15;97083.09;5157053;27;20464;-81
2023/07/24 06:50:35;;;;;;;11.03;7.10;;;21.00;84.20;;;21.09;66.72;97081.25;5123779;27;20468;-84
2023/07/24 06:53:03;;;;;;;9.37;6.80;;;21.00;84.10;;;21.32;65.62;97070.34;5101157;27;20528;-78
2023/07/24 06:55:31;;;;;;;8.87;6.37;;;21.20;83.70;;;21.36;66.29;97076.84;5105057;27;20448;-79
2023/07/24 06:57:58;;;;;;;8.63;6.40;;;21.30;84.00;;;21.41;65.93;97059.44;5124376;27;20482;-84
2023/07/24 07:00:25;;;;;;;8.30;6.10;;;21.40;83.80;;;21.67;65.37;97062.41;5114611;27;23523;-82
2023/07/24 07:02:52;;;;;;;7.40;6.43;;;21.50;84.40;;;21.01;66.85;97018.84;5129353;27;20482;-80
2023/07/24 07:05:19;;;;;;;10.07;6.10;;;21.40;83.90;;;21.50;67.27;97049.31;5131623;27;20489;-78
2023/07/24 07:07:47;;;;;;;8.70;6.40;;;21.50;84.80;;;21.53;66.47;97043.19;5125927;27;20463;-82
2023/07/24 07:10:15;;;;;;;8.50;7.00;;;21.40;84.30;;;21.88;65.24;97039.91;5112579;27;20450;-79
2023/07/24 07:12:43;;;;;;;9.03;5.90;;;21.70;84.10;;;22.11;64.70;97056.41;5124944;27;20543;-80
2023/07/24 07:15:11;;;;;;;11.20;7.80;;;21.90;83.70;;;22.86;60.79;97062.09;5130297;27;20519;-83
2023/07/24 07:17:38;;;;;;;7.30;6.00;;;22.50;82.20;;;23.21;60.62;97067.66;5107493;27;20832;-79
2023/07/24 07:20:08;;;;;;;7.77;5.90;;;22.90;81.90;;;23.03;61.33;97060.50;5138813;27;20480;-81
2023/07/24 07:22:35;;;;;;;7.67;5.60;;;23.10;81.90;;;23.12;60.78;97053.06;5087037;27;20459;-82
2023/07/24 07:25:03;;;;;;;11.23;6.77;;;23.10;81.40;;;23.42;60.41;97058.78;5113289;27;20452;-80
2023/07/24 07:27:31;;;;;;;8.50;6.57;;;23.10;81.60;;;23.21;59.66;97050.34;5144815;27;20458;-79
2023/07/24 07:29:58;;;;;;;7.50;6.20;;;23.20;80.50;;;23.48;58.60;97043.72;5117916;27;20454;-79
2023/07/24 07:32:26;;;;;;;7.33;5.90;;;23.20;80.20;;;22.81;60.31;97053.97;5098077;27;20501;-79
2023/07/24 07:34:56;;;;;;;7.93;6.33;;;22.90;80.20;;;22.88;59.99;97057.06;5110425;27;20468;-78
2023/07/24 07:37:23;;;;;;;7.10;5.90;;;22.80;80.40;;;23.43;58.74;97060.44;5129719;27;20462;-78
2023/07/24 07:39:50;;;;;;;8.57;6.40;;;23.10;80.20;;;22.83;60.24;97050.91;5117246;27;20650;-79
2023/07/24 07:42:17;;;;;;;8.70;6.37;;;22.90;80.00;;;23.43;57.97;97054.94;5140588;27;20436;-80
2023/07/24 07:44:46;;;;;;;7.90;6.00;;;22.90;79.80;;;24.18;55.95;97048.38;5106909;27;20483;-80
2023/07/24 07:47:13;;;;;;;6.80;6.03;;;23.60;79.00;;;24.26;55.74;97057.75;5125463;27;20444;-80
2023/07/24 07:49:41;;;;;;;12.40;6.90;;;23.80;78.40;;;24.07;55.50;97063.66;5104110;27;20434;-80
2023/07/24 07:52:08;;;;;;;6.53;5.50;;;23.90;77.30;;;24.81;53.43;97052.56;5101721;27;20471;-80
2023/07/24 07:54:36;;;;;;;9.50;6.43;;;24.30;76.70;;;24.26;54.30;97060.53;5141437;27;20446;-82
2023/07/24 07:57:05;;;;;;;7.17;5.90;;;24.10;75.80;;;24.11;54.25;97052.78;5131344;27;20494;-79
2023/07/24 07:59:33;;;;;;;6.90;6.07;;;24.10;75.70;;;24.51;54.02;97060.78;5126165;27;20469;-80
2023/07/24 08:02:02;;;;;;;12.60;6.40;;;24.10;76.10;;;24.27;54.31;97051.09;5128407;27;20534;-79
2023/07/24 08:04:29;;;;;;;6.73;6.03;;;24.10;76.00;;;24.27;53.89;97056.63;5139117;27;20456;-80
2023/07/24 08:06:56;;;;;;;7.50;5.60;;;24.00;75.80;;;24.13;54.86;97067.03;5105045;27;20639;-78
2023/07/24 08:09:24;;;;;;;11.90;6.57;;;23.90;76.00;;;23.74;55.83;97073.25;5122946;27;20451;-79
2023/07/24 08:11:51;;;;;;;8.20;6.27;;;23.70;76.10;;;23.93;56.12;97063.81;5105179;27;20915;-80
2023/07/24 08:14:19;;;;;;;8.27;6.57;;;23.60;76.70;;;24.14;55.13;97060.38;5125943;27;20522;-82
2023/07/24 08:16:48;;;;;;;8.77;6.77;;;23.80;76.70;;;23.91;55.65;97055.06;5131477;27;21022;-80
2023/07/24 08:19:17;;;;;;;9.47;6.80;;;23.70;76.50;;;24.05;55.81;97049.38;5146939;27;20463;-80
2023/07/24 08:21:44;;;;;;;9.90;6.70;;;23.70;76.80;;;23.89;56.10;97049.06;5133547;27;20959;-80
2023/07/24 08:24:12;;;;;;;7.40;6.23;;;23.70;76.80;;;24.43;54.97;97053.31;5111418;27;20510;-81
2023/07/24 08:26:39;;;;;;;8.40;5.90;;;23.80;76.90;;;24.45;54.83;97048.28;5143088;27;20457;-81
2023/07/24 08:29:07;;;;;;;8.03;6.23;;;24.00;76.70;;;24.46;55.33;97052.66;5119068;27;20992;-81
2023/07/24 08:31:37;;;;;;;8.50;6.60;;;24.10;76.80;;;24.68;54.69;97070.13;5139198;27;20994;-78
2023/07/24 08:34:05;;;;;;;8.60;6.57;;;24.40;76.50;;;24.23;55.95;97068.66;5141358;27;20491;-81
2023/07/24 08:36:33;;;;;;;10.00;6.57;;;24.20;76.30;;;24.30;55.67;97058.72;5118948;27;20444;-80
2023/07/24 08:39:01;;;;;;;8.73;5.80;;;24.20;76.60;;;24.19;56.64;97052.75;5098879;27;20472;-81
2023/07/24 08:41:28;;;;;;;8.50;6.33;;;24.00;76.90;;;24.21;56.86;97051.59;5136858;27;20457;-79
2023/07/24 08:43:55;;;;;;;8.30;6.57;;;24.00;77.10;;;24.90;54.62;97045.00;5113133;27;20488;-82
2023/07/24 08:46:23;;;;;;;7.20;6.07;;;24.40;76.70;;;24.75;55.50;97031.75;5131121;27;20471;-81
2023/07/24 08:48:50;;;;;;;9.87;6.83;;;24.50;76.70;;;25.07;54.86;97021.19;5119138;27;20450;-80
2023/07/24 08:51:21;;;;;;;8.77;7.07;;;24.70;76.50;;;24.76;55.67;97014.06;5126442;27;20478;-81
2023/07/24 08:53:50;;;;;;;8.40;7.50;;;24.70;76.40;;;25.29;54.25;97020.06;5130349;27;20447;-72
2023/07/24 08:56:18;;;;;;;8.83;7.20;;;25.00;76.40;;;25.97;52.31;97042.28;5110894;27;20489;-75
2023/07/24 08:58:45;;;;;;;10.93;7.00;;;25.40;75.30;;;26.15;52.55;97026.28;5113722;27;20979;-74
2023/07/24 09:01:12;;;;;;;8.80;7.20;;;25.80;75.60;;;25.99;52.42;97023.38;5131321;27;20456;-77
2023/07/24 09:03:40;;;;;;;8.40;7.20;;;25.80;74.70;;;26.16;52.46;97025.94;5137842;27;20452;-78
2023/07/24 09:06:07;;;;;;;10.67;7.60;;;25.70;74.90;;;26.21;51.72;97032.44;5102726;27;20437;-78
2023/07/24 09:08:36;;;;;;;9.90;7.73;;;25.80;74.40;;;26.17;51.41;97015.69;5126937;27;20540;-78
2023/07/24 09:11:07;;;;;;;8.67;7.50;;;25.90;73.80;;;26.34;50.84;97008.38;5133870;27;20475;-78
2023/07/24 09:13:36;;;;;;;9.40;7.37;;;26.00;73.20;;;26.36;51.20;97006.06;5108311;27;20957;-80
2023/07/24 09:16:04;;;;;;;8.60;6.73;;;26.10;73.30;;;26.25;50.83;97000.19;5114252;27;21132;-79
2023/07/24 09:18:40;;;;;;;8.73;6.37;;;25.90;72.70;;;25.77;51.18;97011.53;5140488;27;20467;-79
2023/07/24 09:21:07;;;;;;;8.03;6.80;;;25.70;72.30;;;26.32;50.48;97005.16;5129798;27;20506;-78
2023/07/24 09:23:35;;;;;;;10.60;7.07;;;25.90;72.30;;;26.28;48.54;96957.97;5098232;27;20445;-78
2023/07/24 09:26:08;;;;;;;7.93;7.00;;;26.10;71.00;;;26.83;48.04;96991.75;5110186;28;20948;-80
2023/07/24 09:28:36;;;;;;;8.27;6.83;;;26.50;70.40;;;26.23;49.15;97002.47;5135998;27;20452;-79
2023/07/24 09:31:05;;;;;;;9.50;7.70;;;26.20;70.00;;;26.67;48.49;97004.69;5140445;27;20477;-78
2023/07/24 09:33:37;;;;;;;8.90;7.53;;;26.40;70.00;;;26.63;48.13;96999.03;5116995;27;20538;-76
2023/07/24 09:36:07;;;;;;;8.53;6.73;;;26.40;69.60;;;26.95;47.44;97001.25;5133473;27;20936;-79
2023/07/24 09:38:34;;;;;;;8.27;6.47;;;26.50;69.00;;;27.42;45.99;97000.66;5126718;27;20751;-80
2023/07/24 09:41:03;;;;;;;9.30;6.87;;;26.80;68.30;;;27.08;46.77;97002.00;5130189;27;20918;-80
2023/07/24 09:43:33;;;;;;;11.27;7.50;;;26.70;68.10;;;27.56;45.62;96971.75;5135963;27;20855;-80
2023/07/24 09:46:00;;;;;;;8.43;7.53;;;27.10;67.80;;;27.99;44.62;96983.19;5125288;27;20454;-78
2023/07/24 09:48:28;;;;;;;9.27;7.43;;;27.30;66.90;;;28.48;43.20;97001.53;5142148;27;20450;-78
2023/07/24 09:50:58;;;;;;;8.93;6.67;;;27.90;65.80;;;27.03;46.21;97010.59;5115594;27;20433;-79
2023/07/24 09:53:34;;;;;;;9.47;7.37;;;27.30;65.70;;;26.69;47.29;97014.28;5146589;27;20485;-78
2023/07/24 09:56:04;;;;;;;11.80;7.30;;;26.80;66.60;;;27.17;46.95;97015.75;5135502;27;20463;-78
2023/07/24 09:58:35;;;;;;;9.30;7.07;;;26.80;67.20;;;27.61;45.91;97012.31;5146794;27;20461;-77
2023/07/24 10:01:05;;;;;;;8.40;7.37;;;27.00;66.90;;;27.61;45.50;97017.84;5141518;27;20464;-77
2023/07/24 10:03:35;;;;;;;11.13;6.97;;;27.10;66.30;;;27.31;45.48;96998.75;5149095;27;20458;-78
2023/07/24 10:06:03;;;;;;;10.40;7.10;;;27.20;65.50;;;27.17;45.37;96949.22;5152660;27;20445;-79
2023/07/24 10:08:31;;;;;;;7.80;6.40;;;27.00;65.70;;;27.37;46.07;96980.69;5140772;27;20452;-80
2023/07/24 10:10:59;;;;;;;11.67;8.70;;;27.00;65.90;;;27.53;45.00;96975.25;5148119;27;20449;-78
2023/07/24 10:13:28;;;;;;;7.97;6.97;;;27.10;65.60;;;27.08;46.18;96974.31;5139732;27;21060;-79
2023/07/24 10:15:58;;;;;;;8.50;6.50;;;26.90;65.30;;;26.45;46.35;96920.91;5145499;27;20500;-80
2023/07/24 10:18:28;;;;;;;8.67;6.60;;;26.70;65.30;;;26.14;47.32;96970.13;5103807;27;20455;-79
2023/07/24 10:21:03;;;;;;;7.77;6.97;;;26.10;65.90;;;25.64;48.37;96985.00;5126793;27;20645;-79
2023/07/24 10:23:30;;;;;;;8.30;7.17;;;25.60;66.00;;;25.37;49.44;96990.72;5136913;27;20523;-79
2023/07/24 10:26:04;;;;;;;7.93;6.30;;;25.20;66.70;;;25.07;50.09;96993.56;5144748;27;20981;-79
2023/07/24 10:28:34;;;;;;;8.47;6.43;;;25.00;67.40;;;25.14;50.38;97002.13;5123510;27;20558;-80